createdAt,value
2022-10-21T00:01:08.299Z,100838.13
2022-10-21T00:03:53.772Z,100898.88
2022-10-21T00:06:39.562Z,100883.50
2022-10-21T00:09:25.020Z,100881.38
2022-10-21T00:12:10.369Z,100866.69
2022-10-21T00:14:57.276Z,100912.28
2022-10-21T00:17:43.631Z,100908.47
2022-10-21T00:20:29.280Z,100894.84
2022-10-21T00:23:14.771Z,100843.72
2022-10-21T00:26:03.171Z,100867.16
2022-10-21T00:28:48.796Z,100917.75
2022-10-21T00:31:34.810Z,100881.38
2022-10-21T00:34:21.522Z,100920.81
2022-10-21T00:37:06.948Z,100842.50
2022-10-21T00:39:52.916Z,100878.69
2022-10-21T00:42:43.780Z,100841.22
2022-10-21T00:45:32.013Z,100858.63
2022-10-21T00:48:36.687Z,100824.38
2022-10-21T00:51:22.997Z,100852.03
2022-10-21T00:54:12.089Z,100818.06
2022-10-21T00:57:02.332Z,100899.53
2022-10-21T00:59:52.453Z,100883.94
2022-10-21T01:02:38.139Z,100780.13
2022-10-21T01:05:24.585Z,100765.53
2022-10-21T01:08:10.207Z,100799.09
2022-10-21T01:10:59.110Z,100855.66
2022-10-21T01:13:50.478Z,100858.91
2022-10-21T01:17:26.602Z,100867.81
2022-10-21T01:20:46.009Z,100762.41
2022-10-21T01:23:44.662Z,100868.59
2022-10-21T01:26:52.886Z,100815.75
2022-10-21T01:30:07.327Z,100824.47
2022-10-21T01:33:08.083Z,100858.69
2022-10-21T01:36:01.164Z,100850.63
2022-10-21T01:39:00.728Z,100837.50
2022-10-21T01:45:17.541Z,100829.22
2022-10-21T01:48:07.755Z,100758.66
2022-10-21T01:50:58.398Z,100730.97
2022-10-21T01:53:51.816Z,100757.88
2022-10-21T01:56:38.966Z,100771.91
2022-10-21T01:59:28.436Z,100756.66
2022-10-21T02:02:16.008Z,100727.88
2022-10-21T02:05:08.578Z,100758.44
2022-10-21T02:07:54.819Z,100712.34
2022-10-21T02:10:45.876Z,100700.19
2022-10-21T02:13:37.892Z,100744.59
2022-10-21T02:16:28.140Z,100684.56
2022-10-21T02:19:16.307Z,100712.19
2022-10-21T02:22:06.010Z,100718.34
2022-10-21T02:25:00.725Z,100769.06
2022-10-21T02:27:47.328Z,100728.94
2022-10-21T02:30:44.770Z,100694.13
2022-10-21T02:33:59.007Z,100744.44
2022-10-21T02:36:56.729Z,100767.16
2022-10-21T02:40:08.829Z,100704.00
2022-10-21T02:42:59.636Z,100702.78
2022-10-21T02:45:49.831Z,100703.69
2022-10-21T02:48:37.402Z,100685.84
2022-10-21T02:51:22.911Z,100719.91
2022-10-21T02:54:08.273Z,100739.25
2022-10-21T02:56:53.684Z,100705.81
2022-10-21T02:59:39.380Z,100671.25
2022-10-21T03:02:24.768Z,100722.97
2022-10-21T03:05:10.553Z,100723.66
2022-10-21T03:07:56.266Z,100691.34
2022-10-21T03:10:42.040Z,100769.81
2022-10-21T03:13:27.350Z,100702.81
2022-10-21T03:16:12.906Z,100711.25
2022-10-21T03:19:00.491Z,100669.69
2022-10-21T03:21:46.193Z,100667.91
2022-10-21T03:24:31.742Z,100691.69
2022-10-21T03:27:17.037Z,100661.63
2022-10-21T03:30:04.359Z,100665.03
2022-10-21T03:32:53.163Z,100687.00
2022-10-21T03:35:43.718Z,100689.56
2022-10-21T03:38:29.348Z,100694.75
2022-10-21T03:41:14.792Z,100695.84
2022-10-21T03:44:02.508Z,100747.88
2022-10-21T03:46:48.114Z,100641.22
2022-10-21T03:52:24.086Z,100703.06
2022-10-21T03:55:12.679Z,100633.31
2022-10-21T03:57:58.218Z,100677.84
2022-10-21T04:00:43.989Z,100706.81
2022-10-21T04:03:29.815Z,100699.22
2022-10-21T04:06:15.663Z,100721.19
2022-10-21T04:09:03.940Z,100679.88
2022-10-21T04:11:49.521Z,100624.69
2022-10-21T04:14:35.002Z,100654.31
2022-10-21T04:17:20.617Z,100660.88
2022-10-21T04:20:10.032Z,100637.22
2022-10-21T04:22:55.523Z,100592.31
2022-10-21T04:25:44.033Z,100612.03
2022-10-21T04:28:30.917Z,100604.69
2022-10-21T04:31:16.473Z,100611.94
2022-10-21T04:34:02.039Z,100619.50
2022-10-21T04:36:47.571Z,100615.97
2022-10-21T04:39:33.207Z,100598.25
2022-10-21T04:42:18.733Z,100581.44
2022-10-21T04:45:06.199Z,100602.81
2022-10-21T04:47:51.920Z,100635.88
2022-10-21T04:50:37.730Z,100575.31
2022-10-21T04:53:25.358Z,100586.69
2022-10-21T04:56:11.021Z,100553.56
2022-10-21T04:58:58.574Z,100578.41
2022-10-21T05:01:44.311Z,100574.28
2022-10-21T05:04:29.899Z,100568.78
2022-10-21T05:07:15.389Z,100568.53
2022-10-21T05:10:01.015Z,100518.63
2022-10-21T05:12:46.726Z,100556.19
2022-10-21T05:15:33.291Z,100548.47
2022-10-21T05:18:18.752Z,100573.69
2022-10-21T05:21:04.631Z,100621.44
2022-10-21T05:23:50.030Z,100585.81
2022-10-21T05:26:35.787Z,100560.00
2022-10-21T05:29:21.193Z,100552.94
2022-10-21T05:32:06.675Z,100627.38
2022-10-21T05:34:52.293Z,100573.59
2022-10-21T05:37:37.815Z,100553.97
2022-10-21T05:40:23.615Z,100602.22
2022-10-21T05:43:09.476Z,100649.53
2022-10-21T05:46:01.008Z,100593.66
2022-10-21T05:51:32.254Z,100626.94
2022-10-21T05:54:17.689Z,100565.50
2022-10-21T05:57:03.611Z,100561.50
2022-10-21T05:59:48.977Z,100551.97
2022-10-21T06:02:34.821Z,100642.09
2022-10-21T06:05:20.979Z,100550.91
2022-10-21T06:08:09.219Z,100570.81
2022-10-21T06:11:09.881Z,100602.28
2022-10-21T06:13:55.172Z,100596.09
2022-10-21T06:16:43.156Z,100601.88
2022-10-21T06:19:28.849Z,100624.88
2022-10-21T06:22:14.680Z,100601.59
2022-10-21T06:25:02.653Z,100547.53
2022-10-21T06:27:48.117Z,100609.78
2022-10-21T06:30:34.315Z,100580.31
2022-10-21T06:33:24.636Z,100590.38
2022-10-21T06:36:12.757Z,100556.50
2022-10-21T06:38:58.410Z,100531.94
2022-10-21T06:41:43.775Z,100571.81
2022-10-21T06:44:29.234Z,100505.00
2022-10-21T06:47:14.483Z,100555.63
2022-10-21T06:50:03.077Z,100564.84
2022-10-21T06:52:50.569Z,100582.69
2022-10-21T06:55:36.105Z,100601.28
2022-10-21T06:58:21.600Z,100600.44
2022-10-21T07:01:16.698Z,100579.06
2022-10-21T07:04:13.386Z,100564.75
2022-10-21T07:06:58.648Z,100588.56
2022-10-21T07:09:44.767Z,100569.84
2022-10-21T07:12:30.869Z,100588.19
2022-10-21T07:15:16.415Z,100618.75
2022-10-21T07:18:01.678Z,100573.28
2022-10-21T07:20:47.355Z,100577.31
2022-10-21T07:23:33.334Z,100582.94
2022-10-21T07:26:23.374Z,100547.47
2022-10-21T07:29:08.766Z,100551.91
2022-10-21T07:31:56.929Z,100591.75
2022-10-21T07:34:42.348Z,100594.50
2022-10-21T07:37:28.112Z,100623.44
2022-10-21T07:40:13.522Z,100579.19
2022-10-21T07:42:59.098Z,100569.72
2022-10-21T07:45:44.895Z,100585.97
2022-10-21T07:48:33.257Z,100598.28
2022-10-21T07:51:23.646Z,100656.16
2022-10-21T07:54:12.491Z,100614.44
2022-10-21T07:56:58.557Z,100563.09
2022-10-21T07:59:44.183Z,100599.53
2022-10-21T08:02:29.591Z,100614.19
2022-10-21T08:05:15.004Z,100566.03
2022-10-21T08:08:00.712Z,100616.06
2022-10-21T08:10:46.670Z,100598.19
2022-10-21T08:13:32.939Z,100608.47
2022-10-21T08:16:22.770Z,100594.16
2022-10-21T08:19:09.078Z,100611.22
2022-10-21T08:21:54.775Z,100597.00
2022-10-21T08:24:42.320Z,100600.75
2022-10-21T08:27:29.992Z,100571.97
2022-10-21T08:30:15.823Z,100606.50
2022-10-21T08:33:01.609Z,100601.16
2022-10-21T08:35:47.474Z,100592.47
2022-10-21T08:38:33.149Z,100590.06
2022-10-21T08:41:53.151Z,100594.97
2022-10-21T08:44:52.230Z,100597.53
2022-10-21T08:47:47.145Z,100556.75
2022-10-21T08:50:42.723Z,100592.22
2022-10-21T08:53:35.616Z,100535.94
2022-10-21T08:56:21.354Z,100560.69
2022-10-21T08:59:20.786Z,100626.31
2022-10-21T09:02:12.342Z,100618.03
2022-10-21T09:05:23.294Z,100618.03
2022-10-21T09:08:20.256Z,100547.50
2022-10-21T09:11:15.628Z,100550.22
2022-10-21T09:17:43.525Z,100601.13
2022-10-21T09:20:48.663Z,100593.28
2022-10-21T09:23:58.121Z,100589.97
2022-10-21T09:26:47.593Z,100504.53
2022-10-21T09:29:50.472Z,100513.25
2022-10-21T09:32:40.734Z,100509.19
2022-10-21T09:35:42.353Z,100498.47
2022-10-21T09:38:45.162Z,100547.31
2022-10-21T09:41:36.561Z,100544.84
2022-10-21T09:44:23.341Z,100503.16
2022-10-21T09:47:26.566Z,100553.19
2022-10-21T09:50:20.394Z,100550.16
2022-10-21T09:53:14.110Z,100548.13
2022-10-21T09:56:08.576Z,100545.34
2022-10-21T09:59:11.340Z,100597.78
2022-10-21T10:02:05.828Z,100594.41
2022-10-21T10:04:53.456Z,100564.56
2022-10-21T10:07:39.288Z,100536.81
2022-10-21T10:10:33.811Z,100548.91
2022-10-21T10:13:20.343Z,100575.91
2022-10-21T10:16:30.138Z,100610.63
2022-10-21T10:19:24.679Z,100604.34
2022-10-21T10:22:15.238Z,100558.06
2022-10-21T10:25:24.114Z,100590.63
2022-10-21T10:28:09.952Z,100613.97
2022-10-21T10:30:57.311Z,100547.69
2022-10-21T10:33:58.821Z,100552.25
2022-10-21T10:36:45.146Z,100542.13
2022-10-21T10:39:33.938Z,100580.72
2022-10-21T10:42:25.931Z,100486.63
2022-10-21T10:45:22.604Z,100532.63
2022-10-21T10:48:22.668Z,100540.16
2022-10-21T10:51:34.847Z,100572.38
2022-10-21T10:54:27.294Z,100502.34
2022-10-21T10:57:29.966Z,100521.81
2022-10-21T11:00:25.145Z,100510.97
2022-10-21T11:03:19.552Z,100562.72
2022-10-21T11:06:15.998Z,100543.00
2022-10-21T11:09:02.294Z,100483.94
2022-10-21T11:11:51.347Z,100500.63
2022-10-21T11:14:37.112Z,100483.25
2022-10-21T11:17:37.569Z,100508.25
2022-10-21T11:20:55.366Z,100496.75
2022-10-21T11:24:03.305Z,100555.94
2022-10-21T11:27:25.844Z,100553.03
2022-10-21T11:30:14.077Z,100541.03
2022-10-21T11:33:05.446Z,100545.09
2022-10-21T11:36:03.422Z,100462.91
2022-10-21T11:38:56.959Z,100502.91
2022-10-21T11:41:48.671Z,100529.94
2022-10-21T11:45:06.676Z,100516.69
2022-10-21T11:48:01.163Z,100549.91
2022-10-21T11:51:16.526Z,100544.03
2022-10-21T11:54:47.528Z,100536.09
2022-10-21T11:58:02.400Z,100486.38
2022-10-21T12:01:23.872Z,100509.34
2022-10-21T12:04:21.514Z,100510.88
2022-10-21T12:07:17.730Z,100524.66
2022-10-21T12:10:30.349Z,100467.59
2022-10-21T12:13:29.656Z,100464.16
2022-10-21T12:16:19.888Z,100488.47
2022-10-21T12:19:11.623Z,100491.16
2022-10-21T12:22:00.099Z,100480.78
2022-10-21T12:25:01.215Z,100475.78
2022-10-21T12:27:59.255Z,100504.53
2022-10-21T12:30:58.871Z,100486.06
2022-10-21T12:33:45.427Z,100525.66
2022-10-21T12:36:57.487Z,100498.81
2022-10-21T12:39:50.729Z,100485.22
2022-10-21T12:42:38.612Z,100489.00
2022-10-21T12:45:33.735Z,100460.47
2022-10-21T12:48:33.022Z,100481.91
2022-10-21T12:51:30.008Z,100476.94
2022-10-21T12:54:19.769Z,100555.94
2022-10-21T12:57:09.559Z,100472.56
2022-10-21T13:03:46.340Z,100503.22
2022-10-21T13:06:55.616Z,100505.84
2022-10-21T13:09:43.157Z,100487.38
2022-10-21T13:12:31.780Z,100495.97
2022-10-21T13:15:20.068Z,100546.38
2022-10-21T13:18:07.996Z,100490.56
2022-10-21T13:20:59.405Z,100477.94
2022-10-21T13:23:48.055Z,100491.81
2022-10-21T13:26:38.796Z,100537.72
2022-10-21T13:29:42.298Z,100460.63
2022-10-21T13:32:38.360Z,100520.38
2022-10-21T13:35:32.718Z,100455.03
2022-10-21T13:38:29.627Z,100449.84
2022-10-21T13:41:26.161Z,100464.22
2022-10-21T13:44:28.842Z,100455.00
2022-10-21T13:47:34.902Z,100539.34
2022-10-21T13:50:26.028Z,100518.16
2022-10-21T13:53:17.499Z,100530.31
2022-10-21T13:56:08.553Z,100456.75
2022-10-21T13:58:54.260Z,100514.09
2022-10-21T14:01:44.929Z,100526.16
2022-10-21T14:04:33.292Z,100491.72
2022-10-21T14:07:19.899Z,100465.97
2022-10-21T14:10:08.107Z,100474.31
2022-10-21T14:12:55.671Z,100477.94
2022-10-21T14:15:44.745Z,100492.84
2022-10-21T14:18:37.238Z,100532.19
2022-10-21T14:21:27.369Z,100494.66
2022-10-21T14:24:37.475Z,100453.00
2022-10-21T14:27:29.349Z,100477.19
2022-10-21T14:30:21.308Z,100499.09
2022-10-21T14:33:15.188Z,100480.19
2022-10-21T14:36:14.920Z,100458.63
2022-10-21T14:39:09.108Z,100491.78
2022-10-21T14:41:56.511Z,100446.50
2022-10-21T14:44:44.799Z,100465.53
2022-10-21T14:47:30.316Z,100455.41
2022-10-21T14:50:22.584Z,100520.97
2022-10-21T14:53:21.633Z,100504.44
2022-10-21T14:56:16.554Z,100480.47
2022-10-21T14:59:22.010Z,100506.03
2022-10-21T15:02:20.905Z,100430.84
2022-10-21T15:05:33.072Z,100517.97
2022-10-21T15:08:25.810Z,100517.09
2022-10-21T15:11:20.825Z,100458.91
2022-10-21T15:14:15.239Z,100521.09
2022-10-21T15:17:09.170Z,100468.66
2022-10-21T15:19:55.032Z,100451.66
2022-10-21T15:22:43.369Z,100442.53
2022-10-21T15:25:29.753Z,100476.72
2022-10-21T15:28:21.111Z,100486.06
2022-10-21T15:31:15.561Z,100520.19
2022-10-21T15:34:00.912Z,100466.91
2022-10-21T15:36:46.734Z,100470.03
2022-10-21T15:39:32.198Z,100473.81
2022-10-21T15:42:19.138Z,100476.84
2022-10-21T15:45:05.073Z,100453.41
2022-10-21T15:47:55.043Z,100460.03
2022-10-21T15:50:42.829Z,100480.00
2022-10-21T15:53:28.500Z,100482.63
2022-10-21T15:56:15.674Z,100473.97
2022-10-21T15:59:01.385Z,100469.28
2022-10-21T16:01:48.627Z,100433.63
2022-10-21T16:04:34.391Z,100456.19
2022-10-21T16:07:33.059Z,100449.81
2022-10-21T16:10:26.672Z,100459.69
2022-10-21T16:13:12.043Z,100453.25
2022-10-21T16:16:05.179Z,100496.53
2022-10-21T16:18:55.965Z,100442.91
2022-10-21T16:21:42.156Z,100449.63
2022-10-21T16:24:28.058Z,100477.78
2022-10-21T16:27:23.029Z,100496.25
2022-10-21T16:30:25.889Z,100472.81
2022-10-21T16:33:11.388Z,100491.50
2022-10-21T16:35:58.570Z,100493.06
2022-10-21T16:38:46.232Z,100526.44
2022-10-21T16:41:35.289Z,100491.50
2022-10-21T16:44:20.914Z,100494.78
2022-10-21T16:47:08.794Z,100499.06
2022-10-21T16:49:56.634Z,100538.47
2022-10-21T16:52:42.353Z,100488.69
2022-10-21T16:55:28.328Z,100475.09
2022-10-21T16:58:13.834Z,100477.91
2022-10-21T17:00:59.373Z,100527.56
2022-10-21T17:03:45.564Z,100505.69
2022-10-21T17:06:31.450Z,100513.19
2022-10-21T17:09:17.181Z,100477.69
2022-10-21T17:12:02.712Z,100482.00
2022-10-21T17:14:48.479Z,100534.34
2022-10-21T17:17:34.262Z,100501.53
2022-10-21T17:20:19.825Z,100495.28
2022-10-21T17:23:05.464Z,100521.06
2022-10-21T17:25:50.896Z,100570.91
2022-10-21T17:28:36.529Z,100505.03
2022-10-21T17:31:24.695Z,100527.00
2022-10-21T17:34:26.963Z,100541.78
2022-10-21T17:37:14.778Z,100496.34
2022-10-21T17:40:00.496Z,100526.47
2022-10-21T17:42:46.608Z,100497.09
2022-10-21T17:45:31.940Z,100541.56
2022-10-21T17:48:17.491Z,100547.78
2022-10-21T17:51:02.873Z,100513.81
2022-10-21T17:53:49.950Z,100516.56
2022-10-21T17:56:35.408Z,100554.38
2022-10-21T17:59:20.878Z,100526.47
2022-10-21T18:02:08.638Z,100506.22
2022-10-21T18:04:55.893Z,100554.16
2022-10-21T18:07:41.663Z,100561.34
2022-10-21T18:10:27.768Z,100547.72
2022-10-21T18:13:13.200Z,100517.38
2022-10-21T18:16:06.794Z,100577.00
2022-10-21T18:18:56.161Z,100573.28
2022-10-21T18:21:44.586Z,100515.94
2022-10-21T18:24:30.285Z,100534.81
2022-10-21T18:27:15.933Z,100564.50
2022-10-21T18:30:04.781Z,100497.75
2022-10-21T18:32:50.425Z,100581.75
2022-10-21T18:35:35.845Z,100564.34
2022-10-21T18:38:21.636Z,100532.94
2022-10-21T18:41:19.597Z,100496.94
2022-10-21T18:44:08.481Z,100565.97
2022-10-21T18:46:55.986Z,100548.56
2022-10-21T18:49:42.079Z,100555.84
2022-10-21T18:52:27.717Z,100529.47
2022-10-21T18:55:13.719Z,100535.56
2022-10-21T18:57:59.041Z,100598.03
2022-10-21T19:00:47.333Z,100559.88
2022-10-21T19:03:32.692Z,100537.78
2022-10-21T19:06:46.073Z,100535.13
2022-10-21T19:09:31.508Z,100599.69
2022-10-21T19:12:20.989Z,100554.38
2022-10-21T19:15:09.445Z,100535.88
2022-10-21T19:17:57.100Z,100566.75
2022-10-21T19:20:42.862Z,100562.84
2022-10-21T19:23:32.357Z,100555.66
2022-10-21T19:26:21.072Z,100588.19
2022-10-21T19:29:11.753Z,100549.00
2022-10-21T19:31:57.547Z,100578.78
2022-10-21T19:34:44.041Z,100550.59
2022-10-21T19:37:29.795Z,100550.50
2022-10-21T19:40:15.380Z,100622.88
2022-10-21T19:43:00.621Z,100568.53
2022-10-21T19:45:46.010Z,100528.78
2022-10-21T19:48:34.198Z,100549.84
2022-10-21T19:51:22.124Z,100546.22
2022-10-21T19:54:08.848Z,100623.28
2022-10-21T19:56:54.689Z,100627.72
2022-10-21T19:59:40.148Z,100595.78
2022-10-21T20:02:25.511Z,100593.63
2022-10-21T20:05:11.009Z,100566.66
2022-10-21T20:07:56.591Z,100582.09
2022-10-21T20:10:42.280Z,100559.91
2022-10-21T20:13:27.850Z,100560.88
2022-10-21T20:16:20.899Z,100556.84
2022-10-21T20:19:06.844Z,100599.28
2022-10-21T20:21:58.099Z,100568.28
2022-10-21T20:24:46.253Z,100619.19
2022-10-21T20:27:31.943Z,100608.44
2022-10-21T20:30:17.438Z,100620.66
2022-10-21T20:33:02.791Z,100629.81
2022-10-21T20:35:48.464Z,100577.25
2022-10-21T20:38:37.046Z,100580.88
2022-10-21T20:41:25.888Z,100599.41
2022-10-21T20:44:19.738Z,100588.22
2022-10-21T20:47:05.361Z,100609.28
2022-10-21T20:49:50.873Z,100604.22
2022-10-21T20:52:36.467Z,100613.81
2022-10-21T20:55:21.956Z,100600.38
2022-10-21T20:58:07.290Z,100621.94
2022-10-21T21:00:54.144Z,100629.63
2022-10-21T21:03:42.750Z,100577.44
2022-10-21T21:06:28.631Z,100638.84
2022-10-21T21:12:24.174Z,100569.88
2022-10-21T21:15:09.895Z,100580.03
2022-10-21T21:17:56.202Z,100648.50
2022-10-21T21:20:41.841Z,100604.00
2022-10-21T21:23:27.308Z,100623.03
2022-10-21T21:26:23.658Z,100589.72
2022-10-21T21:29:09.637Z,100626.75
2022-10-21T21:31:55.584Z,100619.72
2022-10-21T21:34:40.874Z,100611.91
2022-10-21T21:37:26.389Z,100627.06
2022-10-21T21:40:11.958Z,100572.00
2022-10-21T21:43:00.460Z,100613.13
2022-10-21T21:45:46.927Z,100633.53
2022-10-21T21:48:33.036Z,100587.16
2022-10-21T21:51:19.673Z,100615.56
2022-10-21T21:54:07.680Z,100591.69
2022-10-21T21:57:10.359Z,100650.69
2022-10-21T22:00:01.037Z,100599.13
2022-10-21T22:02:46.838Z,100576.19
2022-10-21T22:05:33.364Z,100584.28
2022-10-21T22:08:18.994Z,100617.38
2022-10-21T22:11:06.495Z,100602.59
2022-10-21T22:13:52.172Z,100616.25
2022-10-21T22:16:37.623Z,100609.25
2022-10-21T22:19:23.107Z,100619.41
2022-10-21T22:22:11.396Z,100597.03
2022-10-21T22:24:56.627Z,100574.63
2022-10-21T22:27:42.763Z,100631.47
2022-10-21T22:30:28.593Z,100637.09
2022-10-21T22:33:14.367Z,100596.28
2022-10-21T22:36:00.037Z,100639.94
2022-10-21T22:38:47.897Z,100633.56
2022-10-21T22:41:33.594Z,100639.09
2022-10-21T22:44:22.066Z,100614.53
2022-10-21T22:47:08.271Z,100605.13
2022-10-21T22:49:54.318Z,100610.41
2022-10-21T22:52:41.362Z,100576.16
2022-10-21T22:55:28.273Z,100670.78
2022-10-21T22:58:19.842Z,100619.63
2022-10-21T23:01:07.806Z,100576.03
2022-10-21T23:03:53.333Z,100625.63
2022-10-21T23:06:39.056Z,100613.75
2022-10-21T23:09:27.233Z,100608.03
2022-10-21T23:12:13.142Z,100597.22
2022-10-21T23:14:58.369Z,100654.66
2022-10-21T23:17:44.192Z,100609.63
2022-10-21T23:20:29.754Z,100619.69
2022-10-21T23:23:15.171Z,100615.94
2022-10-21T23:26:02.877Z,100600.59
2022-10-21T23:28:48.413Z,100645.66
2022-10-21T23:31:34.173Z,100639.34
2022-10-21T23:34:21.956Z,100629.97
2022-10-21T23:37:07.767Z,100620.28
2022-10-21T23:39:53.283Z,100605.31
2022-10-21T23:42:42.733Z,100656.84
2022-10-21T23:45:28.537Z,100624.31
2022-10-21T23:48:14.037Z,100565.84
2022-10-21T23:50:59.569Z,100617.81
2022-10-21T23:53:45.283Z,100605.63
2022-10-21T23:56:32.374Z,100606.41
2022-10-21T23:59:17.739Z,100561.44
